Terminal Aerodrome Forecast
Issued by NWS

Current Version | Previous Version | Text Only | Print | Product List | Glossary Off
Versions: 1 2 3 4 5 6 7 8 9 10 11 12 13 14 15 16 17 18

000
FTUS41 KILN 271700
TAFLCK
TAF
KLCK 271739Z 2718/2818 30006KT P6SM -SN BKN025
     FM280000 33004KT P6SM SCT025
     FM280200 00000KT P6SM SCT200
     FM280800 07004KT P6SM BKN100
     FM281700 11006KT P6SM BKN060=

USA.gov is the U.S. government's official web portal to all federal, state and local government web resources and services.